Time;durP1;ratioP1;P1;durP2;ratioP2;P2;SDS_P1;SDS_P2;PMS_P1;PMS_P2;Temp;Humidity;BMP_temperature;BMP_pressure;BME280_temperature;BME280_humidity;BME280_pressure;Samples;Min_cycle;Max_cycle;Signal;HPM_P1;HPM_P2
2021/03/28 00:02:27;;;;;;;3.97;2.25;;;5.70;72.20;;;;;;5067549;28;20393;-80
2021/03/28 00:05:01;;;;;;;3.97;1.85;;;5.70;72.60;;;;;;5061908;28;20041;-79
2021/03/28 00:07:48;;;;;;;3.92;2.80;;;5.70;71.80;;;;;;5050128;28;20057;-79
2021/03/28 00:10:42;;;;;;;3.30;2.08;;;5.70;70.80;;;;;;5061288;28;20384;-80
2021/03/28 00:13:17;;;;;;;3.45;1.88;;;5.70;70.60;;;;;;5071163;28;20064;-80
2021/03/28 00:16:01;;;;;;;4.68;1.85;;;5.70;70.60;;;;;;5062033;28;20053;-79
2021/03/28 00:19:09;;;;;;;4.03;2.17;;;5.70;70.40;;;;;;5042954;28;20063;-80
2021/03/28 00:21:47;;;;;;;3.53;1.48;;;5.70;71.60;;;;;;5042584;28;20043;-80
2021/03/28 00:24:40;;;;;;;7.25;2.63;;;5.70;70.90;;;;;;5045778;28;20503;-80
2021/03/28 00:27:17;;;;;;;2.23;1.90;;;5.70;70.80;;;;;;5052146;28;20049;-80
2021/03/28 00:29:54;;;;;;;4.18;1.88;;;5.60;69.50;;;;;;5072529;28;20301;-79
2021/03/28 00:32:41;;;;;;;3.60;2.45;;;5.60;71.50;;;;;;5037649;28;20040;-80
2021/03/28 00:35:15;;;;;;;3.45;1.75;;;5.60;71.30;;;;;;5051645;28;20060;-79
2021/03/28 00:37:46;;;;;;;3.10;2.50;;;5.60;73.50;;;;;;5067983;28;20509;-80
2021/03/28 00:40:21;;;;;;;1.73;1.60;;;5.50;76.40;;;;;;5070874;28;20044;-80
2021/03/28 00:43:17;;;;;;;6.03;2.17;;;5.40;77.70;;;;;;5069318;28;20488;-80
2021/03/28 00:45:49;;;;;;;8.55;3.95;;;5.40;78.80;;;;;;5069889;28;20052;-79
2021/03/28 00:48:31;;;;;;;2.88;2.30;;;5.30;78.40;;;;;;5058024;28;20044;-81
2021/03/28 00:51:13;;;;;;;2.92;2.13;;;5.30;78.20;;;;;;5035305;28;20053;-81
2021/03/28 00:53:54;;;;;;;2.45;2.22;;;5.30;79.20;;;;;;5053374;28;20041;-81
2021/03/28 00:56:41;;;;;;;5.30;2.38;;;5.30;80.20;;;;;;5051320;28;20099;-80
2021/03/28 00:59:24;;;;;;;5.25;2.85;;;5.20;80.60;;;;;;5065306;28;20055;-79
2021/03/28 01:02:10;;;;;;;3.03;2.58;;;5.20;81.80;;;;;;5085129;28;20040;-80
2021/03/28 01:05:01;;;;;;;5.72;2.47;;;5.10;81.60;;;;;;5067313;28;20484;-80
2021/03/28 01:07:32;;;;;;;4.68;3.55;;;5.10;82.80;;;;;;5070904;28;20036;-79
2021/03/28 01:10:33;;;;;;;6.32;3.15;;;5.10;82.50;;;;;;5069853;28;20044;-80
2021/03/28 01:13:22;;;;;;;2.55;2.30;;;5.10;82.60;;;;;;5064883;28;20039;-81
2021/03/28 01:16:11;;;;;;;3.67;2.35;;;5.10;82.90;;;;;;5091795;28;20051;-80
2021/03/28 01:19:03;;;;;;;3.65;2.33;;;5.00;83.00;;;;;;5091890;28;20047;-80
2021/03/28 01:21:46;;;;;;;5.18;2.78;;;5.00;83.50;;;;;;5071795;28;20045;-81
2021/03/28 01:24:38;;;;;;;4.40;3.22;;;5.00;83.90;;;;;;5083327;28;20507;-79
2021/03/28 01:27:32;;;;;;;4.35;2.63;;;4.90;83.60;;;;;;5088230;28;20779;-79
2021/03/28 01:30:10;;;;;;;2.92;2.22;;;4.90;84.70;;;;;;5090541;28;20059;-79
2021/03/28 01:32:43;;;;;;;3.72;3.03;;;4.90;85.00;;;;;;5101398;28;20047;-81
2021/03/28 01:35:10;;;;;;;4.45;3.70;;;4.80;85.30;;;;;;5092444;28;20067;-81
2021/03/28 01:38:07;;;;;;;3.70;2.83;;;4.80;84.30;;;;;;5073900;28;20059;-81
2021/03/28 01:41:00;;;;;;;3.28;2.60;;;4.80;85.50;;;;;;5090595;28;20062;-80
2021/03/28 01:43:35;;;;;;;4.18;2.75;;;4.80;85.50;;;;;;5072653;28;20486;-81
2021/03/28 01:46:18;;;;;;;3.25;2.92;;;4.80;85.00;;;;;;5057323;28;20481;-80
2021/03/28 01:48:52;;;;;;;2.72;2.53;;;4.80;86.30;;;;;;5091289;28;20081;-80
2021/03/28 01:51:43;;;;;;;3.45;2.80;;;4.80;86.10;;;;;;5091711;28;20044;-79
2021/03/28 01:54:28;;;;;;;4.10;3.15;;;4.80;86.20;;;;;;5079601;28;20040;-79
2021/03/28 01:57:08;;;;;;;3.38;3.08;;;4.80;85.70;;;;;;5091041;28;20098;-81
2021/03/28 02:00:08;;;;;;;4.00;2.67;;;4.80;85.70;;;;;;5091907;28;20063;-79
2021/03/28 02:03:20;;;;;;;3.78;2.90;;;4.80;85.70;;;;;;5073470;28;20036;-78
2021/03/28 02:06:20;;;;;;;2.78;2.58;;;4.80;85.20;;;;;;5030347;28;20052;-80
2021/03/28 02:09:30;;;;;;;4.85;2.30;;;4.80;83.50;;;;;;5054627;28;20059;-81
2021/03/28 02:12:04;;;;;;;3.60;2.63;;;4.80;83.70;;;;;;5086174;28;20067;-80
2021/03/28 02:14:38;;;;;;;6.75;2.20;;;4.90;83.60;;;;;;5092527;28;20063;-81
2021/03/28 02:17:42;;;;;;;4.95;3.63;;;4.80;83.30;;;;;;5090396;28;20048;-80
2021/03/28 02:20:48;;;;;;;4.97;3.38;;;4.80;83.60;;;;;;5090826;28;20414;-80
2021/03/28 02:23:46;;;;;;;5.63;2.78;;;4.80;83.60;;;;;;5092436;28;20063;-81
2021/03/28 02:26:33;;;;;;;2.95;2.63;;;4.80;83.80;;;;;;5066606;28;20041;-79
2021/03/28 02:29:30;;;;;;;3.42;2.95;;;4.70;83.60;;;;;;5074232;28;20036;-79
2021/03/28 02:32:26;;;;;;;6.03;2.55;;;4.70;83.30;;;;;;5088185;28;20071;-80
2021/03/28 02:35:15;;;;;;;3.60;2.72;;;4.70;83.00;;;;;;5088333;28;20044;-80
2021/03/28 02:37:47;;;;;;;7.47;3.10;;;4.70;82.70;;;;;;5074533;28;20059;-79
2021/03/28 02:40:29;;;;;;;4.28;2.35;;;4.80;82.60;;;;;;5074236;28;20037;-80
2021/03/28 02:43:11;;;;;;;;;;;4.70;83.30;;;;;;5063686;28;20405;-79
2021/03/28 02:45:49;;;;;;;3.10;2.22;;;4.60;83.60;;;;;;5080053;28;20257;-80
2021/03/28 02:48:40;;;;;;;3.90;2.78;;;4.60;83.20;;;;;;5088866;28;20059;-79
2021/03/28 02:51:13;;;;;;;3.28;2.97;;;4.50;84.10;;;;;;5074928;28;20082;-80
2021/03/28 02:53:46;;;;;;;2.60;2.40;;;4.50;84.10;;;;;;5062385;28;20039;-79
2021/03/28 02:56:36;;;;;;;3.13;2.30;;;4.50;84.30;;;;;;5081489;28;20033;-79
2021/03/28 02:59:27;;;;;;;2.97;2.72;;;4.40;84.10;;;;;;5088694;28;20048;-79
2021/03/28 03:02:12;;;;;;;5.15;3.38;;;4.40;83.70;;;;;;5079194;28;20520;-79
2021/03/28 03:05:03;;;;;;;2.38;2.17;;;4.40;83.00;;;;;;5085634;28;20036;-79
2021/03/28 03:08:06;;;;;;;3.45;2.47;;;4.50;82.00;;;;;;5080494;28;20049;-79
2021/03/28 03:10:43;;;;;;;2.83;2.10;;;4.50;82.90;;;;;;5056023;28;20045;-80
2021/03/28 03:13:28;;;;;;;2.63;1.88;;;4.30;86.30;;;;;;5074374;28;20041;-81
2021/03/28 03:16:13;;;;;;;7.60;4.00;;;4.20;85.30;;;;;;5082008;28;20063;-81
2021/03/28 03:18:59;;;;;;;2.35;2.15;;;4.10;85.60;;;;;;5090007;28;20833;-79
2021/03/28 03:21:57;;;;;;;2.25;1.85;;;4.10;85.40;;;;;;5091697;28;20048;-80
2021/03/28 03:24:39;;;;;;;2.55;1.90;;;4.00;85.40;;;;;;5086348;28;20043;-81
2021/03/28 03:27:28;;;;;;;3.90;3.50;;;4.00;84.80;;;;;;5074741;28;20057;-80
2021/03/28 03:30:18;;;;;;;6.38;2.33;;;4.00;85.90;;;;;;5087547;28;20040;-80
2021/03/28 03:33:03;;;;;;;2.28;2.00;;;3.90;86.40;;;;;;5084708;28;20049;-80
2021/03/28 03:35:36;;;;;;;4.82;2.45;;;3.90;85.10;;;;;;5074487;28;20059;-80
2021/03/28 03:38:28;;;;;;;7.90;2.70;;;3.90;84.80;;;;;;5073959;28;20066;-80
2021/03/28 03:41:07;;;;;;;1.80;1.70;;;3.90;84.00;;;;;;5089284;28;20052;-80
2021/03/28 03:44:02;;;;;;;2.60;2.03;;;4.00;83.20;;;;;;5082559;28;20094;-79
2021/03/28 03:46:50;;;;;;;4.80;3.10;;;4.10;82.40;;;;;;5069667;28;20044;-79
2021/03/28 03:49:31;;;;;;;3.50;2.13;;;4.10;83.00;;;;;;5083905;28;20045;-79
2021/03/28 03:52:32;;;;;;;2.65;1.83;;;3.80;86.00;;;;;;5077504;28;20499;-79
2021/03/28 03:55:17;;;;;;;2.58;2.17;;;3.50;88.50;;;;;;5088288;28;20051;-79
2021/03/28 03:57:52;;;;;;;2.85;2.65;;;3.30;90.10;;;;;;5054710;28;20048;-80
2021/03/28 04:00:30;;;;;;;2.00;1.65;;;3.20;90.10;;;;;;5084793;28;20421;-79
2021/03/28 04:03:09;;;;;;;2.45;1.85;;;3.00;90.20;;;;;;5093287;28;20058;-80
2021/03/28 04:06:13;;;;;;;2.88;1.65;;;2.90;90.80;;;;;;5093533;28;20503;-80
2021/03/28 04:09:00;;;;;;;3.17;2.42;;;2.90;90.60;;;;;;5089413;28;20050;-80
2021/03/28 04:11:51;;;;;;;5.57;2.42;;;2.80;90.60;;;;;;5075769;28;20048;-80
2021/03/28 04:14:51;;;;;;;5.50;1.98;;;2.80;90.50;;;;;;5090149;28;20472;-80
2021/03/28 04:17:45;;;;;;;7.25;2.10;;;2.80;90.10;;;;;;5033261;28;20049;-80
2021/03/28 04:20:33;;;;;;;2.20;2.00;;;2.60;89.70;;;;;;5072951;28;20041;-80
2021/03/28 04:23:26;;;;;;;2.08;1.98;;;2.50;90.00;;;;;;5093656;28;20059;-80
2021/03/28 04:26:12;;;;;;;;;;;2.30;90.50;;;;;;5080196;28;20484;-80
2021/03/28 04:28:51;;;;;;;2.78;1.95;;;2.20;90.90;;;;;;5093260;28;19927;-80
2021/03/28 04:31:26;;;;;;;5.90;2.90;;;2.20;90.50;;;;;;5091951;28;20044;-80
2021/03/28 04:34:03;;;;;;;4.05;2.33;;;2.30;90.10;;;;;;5072910;28;20040;-80
2021/03/28 04:36:57;;;;;;;2.17;2.08;;;2.20;90.10;;;;;;5086577;28;20047;-79
2021/03/28 04:39:55;;;;;;;2.75;1.83;;;1.90;90.20;;;;;;5065888;28;20469;-79
2021/03/28 04:42:45;;;;;;;2.45;2.35;;;1.70;90.20;;;;;;5093250;28;20036;-79
2021/03/28 04:45:54;;;;;;;3.47;1.85;;;1.60;90.80;;;;;;5080809;28;20040;-79
2021/03/28 04:48:31;;;;;;;3.58;2.67;;;1.40;90.90;;;;;;5056573;28;20407;-79
2021/03/28 04:50:58;;;;;;;4.20;2.20;;;1.40;91.50;;;;;;5079545;28;20062;-79
2021/03/28 04:53:34;;;;;;;4.13;1.85;;;1.30;91.40;;;;;;5078082;28;20063;-79
2021/03/28 04:56:38;;;;;;;2.75;2.00;;;1.40;91.30;;;;;;5077242;28;20063;-79
2021/03/28 04:59:27;;;;;;;2.90;2.58;;;1.30;91.30;;;;;;5090597;28;20381;-79
2021/03/28 05:02:32;;;;;;;1.75;1.65;;;1.20;91.40;;;;;;5102625;28;20036;-79
2021/03/28 05:05:38;;;;;;;1.42;1.33;;;1.00;92.00;;;;;;5098395;28;20035;-79
2021/03/28 05:08:27;;;;;;;1.95;1.83;;;0.90;92.40;;;;;;5090441;28;20040;-79
2021/03/28 05:11:04;;;;;;;1.85;1.75;;;0.90;92.70;;;;;;5113697;27;20060;-79
2021/03/28 05:14:00;;;;;;;2.50;2.30;;;1.00;92.30;;;;;;5115792;27;20411;-79
2021/03/28 05:16:33;;;;;;;2.65;1.92;;;1.00;92.10;;;;;;5084340;28;20058;-79
2021/03/28 05:19:31;;;;;;;2.85;2.65;;;1.00;92.10;;;;;;5097163;28;20048;-79
2021/03/28 05:21:58;;;;;;;1.88;1.67;;;0.80;92.20;;;;;;5094534;28;20046;-79
2021/03/28 05:24:48;;;;;;;1.98;1.73;;;0.70;92.60;;;;;;5096171;28;20036;-79
2021/03/28 05:27:36;;;;;;;2.13;1.98;;;0.70;92.90;;;;;;5059050;28;20499;-79
2021/03/28 05:30:12;;;;;;;1.77;1.67;;;0.80;92.80;;;;;;5100339;28;20040;-78
2021/03/28 05:33:09;;;;;;;3.22;1.50;;;0.80;92.90;;;;;;5108713;28;20047;-79
2021/03/28 05:36:03;;;;;;;6.10;2.47;;;0.90;92.70;;;;;;5111824;28;20055;-79
2021/03/28 05:39:08;;;;;;;4.05;2.00;;;1.10;92.30;;;;;;5068835;28;20055;-79
2021/03/28 05:41:53;;;;;;;5.00;2.00;;;1.40;91.20;;;;;;5103526;28;20046;-79
2021/03/28 05:44:33;;;;;;;3.70;2.03;;;1.80;90.10;;;;;;5093262;28;20044;-79
2021/03/28 05:47:11;;;;;;;2.58;2.25;;;2.20;88.10;;;;;;5103875;28;20078;-79
2021/03/28 05:49:59;;;;;;;2.50;2.35;;;2.50;85.70;;;;;;5124366;28;20114;-79
2021/03/28 05:52:44;;;;;;;3.63;3.33;;;2.80;83.60;;;;;;5111281;28;20036;-79
2021/03/28 05:55:27;;;;;;;3.05;1.60;;;3.00;82.50;;;;;;5094595;28;20052;-79
2021/03/28 05:58:10;;;;;;;3.28;1.95;;;3.20;81.60;;;;;;5109867;28;20055;-80
2021/03/28 06:00:55;;;;;;;3.75;1.60;;;3.30;81.00;;;;;;5082472;28;20044;-80
2021/03/28 06:04:01;;;;;;;1.60;1.50;;;3.50;79.50;;;;;;5095844;28;20058;-79
2021/03/28 06:06:33;;;;;;;1.70;1.38;;;3.60;79.60;;;;;;5097374;28;20399;-79
2021/03/28 06:09:28;;;;;;;2.30;1.63;;;3.90;79.00;;;;;;5116346;27;20050;-79
2021/03/28 06:12:03;;;;;;;4.95;2.42;;;4.00;78.40;;;;;;5088784;28;20054;-80
2021/03/28 06:14:39;;;;;;;2.50;1.55;;;4.10;78.60;;;;;;5095658;28;20380;-80
2021/03/28 06:17:07;;;;;;;3.72;1.75;;;4.20;78.90;;;;;;5088479;28;20043;-79
2021/03/28 06:19:49;;;;;;;1.98;1.85;;;4.50;77.70;;;;;;5106507;28;20044;-79
2021/03/28 06:22:49;;;;;;;2.38;1.50;;;4.60;76.20;;;;;;5115236;28;20036;-80
2021/03/28 06:25:40;;;;;;;3.08;2.17;;;4.70;76.60;;;;;;5105266;28;21367;-80
2021/03/28 06:28:29;;;;;;;1.77;1.67;;;4.90;76.20;;;;;;5115321;28;20056;-79
2021/03/28 06:31:09;;;;;;;2.33;2.13;;;5.00;75.60;;;;;;5115813;28;20535;-80
2021/03/28 06:34:03;;;;;;;2.08;1.70;;;5.10;74.90;;;;;;5115724;28;20036;-80
2021/03/28 06:36:42;;;;;;;2.15;1.95;;;5.30;75.50;;;;;;5095363;28;20056;-80
2021/03/28 06:39:32;;;;;;;3.22;2.20;;;5.40;73.70;;;;;;5102960;28;20475;-80
2021/03/28 06:42:02;;;;;;;2.40;1.77;;;5.40;75.00;;;;;;5102990;28;20396;-79
2021/03/28 06:44:57;;;;;;;5.00;2.15;;;5.50;73.50;;;;;;5105947;28;20039;-80
2021/03/28 06:47:39;;;;;;;3.80;1.83;;;5.50;74.70;;;;;;5102340;28;20408;-80
2021/03/28 06:50:57;;;;;;;2.30;1.45;;;5.50;74.20;;;;;;5101875;28;20035;-80
2021/03/28 06:54:12;;;;;;;4.20;2.88;;;5.50;73.50;;;;;;5094990;28;20716;-80
2021/03/28 06:56:51;;;;;;;1.67;1.57;;;5.60;73.90;;;;;;5076979;28;20601;-79
2021/03/28 06:59:25;;;;;;;6.65;3.78;;;5.80;74.00;;;;;;5106487;28;20052;-80
2021/03/28 07:02:21;;;;;;;2.42;1.35;;;6.00;72.10;;;;;;5115041;28;20062;-80
2021/03/28 07:05:08;;;;;;;5.43;2.00;;;6.10;69.10;;;;;;5094935;28;20051;-81
2021/03/28 07:08:07;;;;;;;3.40;3.10;;;6.30;70.10;;;;;;5094878;28;20056;-80
2021/03/28 07:10:59;;;;;;;4.53;2.05;;;6.50;68.40;;;;;;5095703;28;20052;-80
2021/03/28 07:13:33;;;;;;;4.55;2.53;;;6.70;70.00;;;;;;5114688;28;20047;-80
2021/03/28 07:16:30;;;;;;;5.00;1.98;;;6.50;69.90;;;;;;5085277;28;20039;-78
2021/03/28 07:19:37;;;;;;;2.10;1.77;;;6.60;70.50;;;;;;5110101;28;20066;-79
2021/03/28 07:22:45;;;;;;;2.58;1.33;;;6.90;67.60;;;;;;5104585;28;20474;-76
2021/03/28 07:25:14;;;;;;;2.17;1.98;;;7.00;66.40;;;;;;5101555;28;20403;-78
2021/03/28 07:28:01;;;;;;;4.85;2.05;;;7.10;69.20;;;;;;5105068;28;20620;-78
2021/03/28 07:30:47;;;;;;;1.88;1.70;;;7.00;65.20;;;;;;5089314;28;20039;-78
2021/03/28 07:33:38;;;;;;;3.22;1.42;;;7.10;66.50;;;;;;5103178;28;20065;-78
2021/03/28 07:36:26;;;;;;;4.75;1.65;;;7.30;63.10;;;;;;5065994;28;20048;-80
2021/03/28 07:39:30;;;;;;;2.42;1.88;;;7.60;62.90;;;;;;5105451;28;20047;-81
2021/03/28 07:42:22;;;;;;;4.32;1.65;;;9.10;55.50;;;;;;5125138;27;20035;-81
2021/03/28 07:45:25;;;;;;;2.78;1.60;;;10.50;52.90;;;;;;5120926;27;20031;-81
2021/03/28 07:48:32;;;;;;;6.60;2.88;;;12.70;46.70;;;;;;5117558;27;20050;-81
2021/03/28 07:51:48;;;;;;;2.10;1.88;;;14.10;40.50;;;;;;5114466;28;20051;-81
2021/03/28 07:55:03;;;;;;;5.65;1.52;;;13.60;40.80;;;;;;5012214;28;20392;-81
2021/03/28 07:58:00;;;;;;;7.55;3.20;;;14.20;41.30;;;;;;5099023;28;20055;-80
2021/03/28 08:00:48;;;;;;;2.75;2.10;;;14.30;39.20;;;;;;5068362;28;20849;-81
2021/03/28 08:03:28;;;;;;;5.20;3.72;;;16.00;36.60;;;;;;5063346;28;20041;-81
2021/03/28 08:06:37;;;;;;;3.83;1.70;;;15.80;37.10;;;;;;5064730;28;20727;-80
2021/03/28 08:09:22;;;;;;;4.72;2.97;;;14.70;39.90;;;;;;5070151;28;20389;-80
2021/03/28 08:11:54;;;;;;;6.72;2.42;;;16.50;37.70;;;;;;5065490;28;20040;-79
2021/03/28 08:14:57;;;;;;;2.53;1.40;;;17.10;34.00;;;;;;5061863;28;20052;-79
2021/03/28 08:17:47;;;;;;;9.13;2.08;;;15.60;36.00;;;;;;5083965;23;20067;-78
2021/03/28 08:20:50;;;;;;;3.08;1.77;;;14.60;39.50;;;;;;5062965;28;20382;-79
2021/03/28 08:23:44;;;;;;;2.42;1.52;;;13.30;43.60;;;;;;5060157;28;20056;-80
2021/03/28 08:26:47;;;;;;;6.40;2.45;;;13.70;41.30;;;;;;5057433;28;20052;-83
2021/03/28 08:29:51;;;;;;;2.80;1.58;;;13.60;43.20;;;;;;5058854;28;20052;-81
2021/03/28 08:32:45;;;;;;;7.93;2.13;;;13.90;41.10;;;;;;5060341;28;20037;-83
2021/03/28 08:35:21;;;;;;;3.72;1.85;;;14.00;42.00;;;;;;5065680;28;20056;-81
2021/03/28 08:38:03;;;;;;;4.88;1.67;;;13.40;41.60;;;;;;5057666;28;20045;-80
2021/03/28 08:40:39;;;;;;;1.98;1.80;;;13.90;44.50;;;;;;5069854;28;20044;-79
2021/03/28 08:43:44;;;;;;;7.32;2.40;;;14.20;43.60;;;;;;5071935;28;20383;-80
2021/03/28 08:46:39;;;;;;;9.15;2.60;;;15.00;40.50;;;;;;5071876;28;20382;-83
2021/03/28 08:49:40;;;;;;;2.92;1.65;;;14.40;41.20;;;;;;5072281;28;20051;-78
2021/03/28 08:52:09;;;;;;;6.00;1.77;;;12.80;41.10;;;;;;5050766;28;20041;-78
2021/03/28 08:54:57;;;;;;;6.15;4.25;;;12.70;45.00;;;;;;5071366;28;20408;-82
2021/03/28 08:57:35;;;;;;;3.88;2.28;;;13.10;44.00;;;;;;5054215;28;20049;-81
2021/03/28 09:00:44;;;;;;;5.53;2.88;;;12.30;47.00;;;;;;5034211;28;20053;-79
2021/03/28 09:03:12;;;;;;;4.57;1.45;;;12.00;47.30;;;;;;5027579;28;20049;-79
2021/03/28 09:05:51;;;;;;;6.70;2.38;;;12.60;46.10;;;;;;5052285;28;20390;-82
2021/03/28 09:08:39;;;;;;;5.45;2.10;;;12.70;48.10;;;;;;5051408;28;20056;-81
2021/03/28 09:11:54;;;;;;;5.90;2.13;;;12.20;43.70;;;;;;5034477;28;20045;-80
2021/03/28 09:14:44;;;;;;;4.53;2.05;;;12.20;46.00;;;;;;5050637;28;20045;-80
2021/03/28 09:17:33;;;;;;;7.03;1.77;;;11.30;51.10;;;;;;5050971;28;20060;-81
2021/03/28 09:20:36;;;;;;;3.38;1.80;;;10.90;50.90;;;;;;5066170;28;20053;-81
2021/03/28 09:23:22;;;;;;;4.90;2.03;;;11.00;53.10;;;;;;5007467;28;20059;-81
2021/03/28 09:26:08;;;;;;;2.10;1.50;;;11.00;52.00;;;;;;5071300;28;20040;-82
2021/03/28 09:28:57;;;;;;;1.70;1.60;;;11.40;53.80;;;;;;5053819;28;20088;-77
2021/03/28 09:31:37;;;;;;;1.40;1.30;;;10.90;52.60;;;;;;5065737;28;20389;-77
2021/03/28 09:34:16;;;;;;;10.40;2.88;;;10.70;53.00;;;;;;5044501;28;20045;-76
2021/03/28 09:36:53;;;;;;;3.92;1.85;;;10.50;52.60;;;;;;5038464;28;20060;-77
2021/03/28 09:39:23;;;;;;;7.53;2.80;;;10.60;55.20;;;;;;5031683;28;20410;-79
2021/03/28 09:42:31;;;;;;;3.95;1.73;;;10.90;52.20;;;;;;5033468;28;20069;-75
2021/03/28 09:45:25;;;;;;;3.63;1.98;;;10.90;52.20;;;;;;5022527;28;20044;-78
2021/03/28 09:48:30;;;;;;;7.38;2.47;;;10.90;50.40;;;;;;5036262;28;20068;-79
2021/03/28 09:51:12;;;;;;;3.72;1.55;;;10.70;52.70;;;;;;5035064;28;20053;-82
2021/03/28 09:53:49;;;;;;;2.53;1.85;;;10.80;54.20;;;;;;5018280;28;20041;-77
2021/03/28 09:56:21;;;;;;;5.35;2.15;;;11.00;53.10;;;;;;5035108;28;20410;-78
2021/03/28 09:59:10;;;;;;;4.88;2.15;;;11.30;51.90;;;;;;5018676;28;20046;-80
2021/03/28 10:02:11;;;;;;;4.40;2.28;;;11.10;52.70;;;;;;5036016;28;20668;-78
2021/03/28 10:04:58;;;;;;;4.20;1.50;;;11.10;50.00;;;;;;5035693;28;20048;-79
2021/03/28 10:08:02;;;;;;;8.43;3.72;;;10.90;52.00;;;;;;5035556;28;20061;-79
2021/03/28 10:10:44;;;;;;;2.40;1.50;;;10.80;52.00;;;;;;5013596;28;20041;-80
2021/03/28 10:13:36;;;;;;;6.25;2.03;;;11.00;51.50;;;;;;5034566;28;20041;-81
2021/03/28 10:16:12;;;;;;;4.60;2.13;;;10.70;54.70;;;;;;5034698;28;20391;-81
2021/03/28 10:19:02;;;;;;;3.38;2.00;;;10.80;50.80;;;;;;5035048;28;20062;-80
2021/03/28 10:21:33;;;;;;;7.97;4.18;;;10.80;51.90;;;;;;5034720;28;20046;-81
2021/03/28 10:24:28;;;;;;;5.53;1.92;;;10.80;51.50;;;;;;5034940;28;20057;-84
2021/03/28 10:27:35;;;;;;;4.78;3.30;;;10.70;50.00;;;;;;5035041;28;20064;-80
2021/03/28 10:30:14;;;;;;;8.82;1.83;;;10.70;50.80;;;;;;5043523;28;20422;-78
2021/03/28 10:32:59;;;;;;;6.35;3.80;;;10.90;47.80;;;;;;5054541;28;20387;-80
2021/03/28 10:36:05;;;;;;;2.50;1.75;;;11.10;53.70;;;;;;5037445;28;20056;-82
2021/03/28 10:38:56;;;;;;;2.50;1.92;;;11.00;47.20;;;;;;5036258;28;20049;-80
2021/03/28 10:41:30;;;;;;;;;;;11.00;48.80;;;;;;5046509;28;20125;-73
2021/03/28 10:44:09;;;;;;;3.67;1.92;;;11.10;49.60;;;;;;5051252;28;19920;-78
2021/03/28 10:47:01;;;;;;;5.72;2.45;;;11.10;50.20;;;;;;5038268;28;20049;-78
2021/03/28 10:49:47;;;;;;;2.50;2.03;;;11.30;50.60;;;;;;5026020;28;20038;-77
2021/03/28 10:53:11;;;;;;;5.30;2.88;;;11.60;48.10;;;;;;5071083;28;20032;-78
2021/03/28 10:56:00;;;;;;;5.25;2.75;;;11.60;48.50;;;;;;5073258;28;20056;-78
2021/03/28 10:59:26;;;;;;;2.97;2.78;;;11.30;47.50;;;;;;5039092;28;20049;-78
2021/03/28 11:02:20;;;;;;;7.30;2.47;;;11.40;48.70;;;;;;4955997;28;20046;-75
2021/03/28 11:05:14;;;;;;;2.83;2.03;;;11.50;47.50;;;;;;4971409;28;20051;-75
2021/03/28 11:08:12;;;;;;;7.00;2.22;;;11.50;51.10;;;;;;4989804;28;20053;-74
2021/03/28 11:10:40;;;;;;;2.08;1.88;;;11.70;47.30;;;;;;5029322;28;20057;-75
2021/03/28 11:13:35;;;;;;;9.00;1.48;;;11.90;49.10;;;;;;5032998;28;20042;-80
2021/03/28 11:16:26;;;;;;;10.50;2.83;;;11.50;49.80;;;;;;5033006;28;20053;-81
2021/03/28 11:19:18;;;;;;;2.55;1.70;;;11.50;47.70;;;;;;4993360;28;20763;-83
2021/03/28 11:22:25;;;;;;;4.78;1.83;;;11.30;48.80;;;;;;5033130;28;20680;-85
2021/03/28 11:25:07;;;;;;;4.32;2.45;;;11.40;48.90;;;;;;5034498;28;20049;-84
2021/03/28 11:27:53;;;;;;;5.45;2.42;;;11.40;50.50;;;;;;5017269;28;20056;-84
2021/03/28 11:30:46;;;;;;;1.80;1.70;;;11.60;52.00;;;;;;5032935;28;20049;-83
2021/03/28 11:33:27;;;;;;;3.53;1.92;;;11.70;51.80;;;;;;5033281;28;20053;-86
2021/03/28 11:35:57;;;;;;;4.07;2.03;;;11.90;48.10;;;;;;5029335;28;21339;-86
2021/03/28 11:38:42;;;;;;;8.23;3.15;;;11.60;49.60;;;;;;5031623;28;20501;-87
2021/03/28 11:41:14;;;;;;;3.88;1.70;;;11.70;48.50;;;;;;5030910;28;20045;-82
2021/03/28 11:43:44;;;;;;;2.30;1.80;;;11.90;47.50;;;;;;5033978;28;20057;-85
2021/03/28 11:46:31;;;;;;;3.97;3.25;;;12.00;47.70;;;;;;5034083;28;20049;-83
2021/03/28 11:49:12;;;;;;;4.22;2.75;;;12.20;45.60;;;;;;5033052;28;20038;-83
2021/03/28 11:52:15;;;;;;;4.70;1.52;;;12.10;46.60;;;;;;5000063;28;20056;-86
2021/03/28 11:55:00;;;;;;;2.63;1.75;;;12.10;46.10;;;;;;4995443;28;20056;-81
2021/03/28 11:57:32;;;;;;;10.02;2.72;;;12.20;45.70;;;;;;5033885;28;20049;-85
2021/03/28 12:00:33;;;;;;;6.72;1.65;;;12.30;46.80;;;;;;5030042;28;20071;-75
2021/03/28 12:03:14;;;;;;;2.07;1.60;;;12.40;45.80;;;;;;5013008;28;20060;-76
2021/03/28 12:05:58;;;;;;;5.20;2.13;;;12.40;44.70;;;;;;5022719;28;20057;-73
2021/03/28 12:08:33;;;;;;;3.75;1.77;;;12.30;46.00;;;;;;5024413;28;20046;-75
2021/03/28 12:11:34;;;;;;;3.60;1.90;;;12.10;44.90;;;;;;5011263;28;20054;-72
2021/03/28 12:14:29;;;;;;;1.92;1.60;;;12.10;46.70;;;;;;5011492;28;20046;-72
2021/03/28 12:17:06;;;;;;;4.47;1.52;;;12.30;45.50;;;;;;5016076;28;20048;-74
2021/03/28 12:19:43;;;;;;;6.07;1.98;;;12.40;48.10;;;;;;5041303;28;20053;-73
2021/03/28 12:22:43;;;;;;;3.45;1.70;;;12.60;45.10;;;;;;5030105;28;20057;-71
2021/03/28 12:25:14;;;;;;;3.08;1.52;;;12.90;47.20;;;;;;5027856;28;20053;-73
2021/03/28 12:27:56;;;;;;;1.38;1.27;;;12.90;47.00;;;;;;5011984;28;20053;-72
2021/03/28 12:30:32;;;;;;;9.00;1.50;;;12.70;44.30;;;;;;5025857;28;20495;-72
2021/03/28 12:33:22;;;;;;;3.85;1.85;;;13.00;42.70;;;;;;5010475;28;20072;-71
2021/03/28 12:36:08;;;;;;;1.40;1.30;;;13.00;41.50;;;;;;5022172;28;20049;-72
2021/03/28 12:38:44;;;;;;;1.67;1.13;;;12.90;41.50;;;;;;5012829;28;20383;-72
2021/03/28 12:41:33;;;;;;;2.28;1.10;;;12.90;41.20;;;;;;5030055;28;20371;-72
2021/03/28 12:44:07;;;;;;;2.20;2.08;;;13.10;43.60;;;;;;5030432;28;20057;-74
2021/03/28 12:47:00;;;;;;;2.63;1.27;;;13.20;43.90;;;;;;5031161;28;20419;-72
2021/03/28 12:49:31;;;;;;;1.60;1.50;;;13.10;40.90;;;;;;4992692;28;20042;-72
2021/03/28 12:52:11;;;;;;;1.92;1.10;;;13.10;45.30;;;;;;5029596;28;20057;-73
2021/03/28 12:55:21;;;;;;;4.57;2.50;;;13.30;45.70;;;;;;5029506;28;20050;-71
2021/03/28 12:58:08;;;;;;;2.67;1.30;;;13.50;45.30;;;;;;5009270;28;20038;-74
2021/03/28 13:00:56;;;;;;;5.47;1.77;;;13.70;42.10;;;;;;5029203;28;20045;-71
2021/03/28 13:03:44;;;;;;;1.40;1.30;;;13.80;42.80;;;;;;5028326;28;20721;-73
2021/03/28 13:06:41;;;;;;;2.42;1.13;;;13.80;43.10;;;;;;5029260;28;20048;-71
2021/03/28 13:09:11;;;;;;;2.75;1.73;;;13.70;42.40;;;;;;5023486;28;20045;-72
2021/03/28 13:11:51;;;;;;;2.47;1.58;;;13.40;44.10;;;;;;5029749;28;20057;-71
2021/03/28 13:14:33;;;;;;;6.60;1.77;;;13.50;42.80;;;;;;5029500;28;20410;-77
2021/03/28 13:17:25;;;;;;;3.70;1.75;;;13.80;43.20;;;;;;5030740;28;20475;-79
2021/03/28 13:20:11;;;;;;;4.75;1.67;;;13.60;39.40;;;;;;5041893;28;20064;-78
2021/03/28 13:22:41;;;;;;;2.55;0.90;;;13.50;39.70;;;;;;5035122;28;20052;-76
2021/03/28 13:25:25;;;;;;;5.38;1.95;;;13.50;41.10;;;;;;5049506;28;20053;-79
2021/03/28 13:28:11;;;;;;;2.05;1.88;;;13.50;44.80;;;;;;5051014;28;20045;-77
2021/03/28 13:30:46;;;;;;;0.80;0.80;;;13.80;40.20;;;;;;5037777;28;20401;-81
2021/03/28 13:33:35;;;;;;;4.28;1.60;;;13.80;41.70;;;;;;5051363;28;20045;-79
2021/03/28 13:36:31;;;;;;;5.25;1.40;;;14.00;40.90;;;;;;5051811;28;20072;-81
2021/03/28 13:39:08;;;;;;;1.30;1.20;;;14.20;39.00;;;;;;5044426;28;20049;-79
2021/03/28 13:41:39;;;;;;;7.93;1.52;;;14.00;38.40;;;;;;5050035;28;20613;-80
2021/03/28 13:44:23;;;;;;;1.75;1.05;;;14.00;40.60;;;;;;5048714;28;20049;-81
2021/03/28 13:47:03;;;;;;;2.45;0.95;;;13.70;39.80;;;;;;5050898;28;20064;-76
2021/03/28 13:49:43;;;;;;;1.20;1.20;;;13.80;41.60;;;;;;5049894;28;20398;-79
2021/03/28 13:52:26;;;;;;;1.33;1.23;;;14.30;41.60;;;;;;5051156;28;20068;-79
2021/03/28 13:55:12;;;;;;;4.93;1.27;;;14.60;38.70;;;;;;5051638;28;20057;-79
2021/03/28 13:57:43;;;;;;;5.38;1.85;;;14.40;37.60;;;;;;5048048;28;20045;-79
2021/03/28 14:00:20;;;;;;;2.75;1.10;;;14.50;40.90;;;;;;5047113;28;20041;-79
2021/03/28 14:02:53;;;;;;;3.03;1.35;;;14.30;41.40;;;;;;5051158;28;20517;-79
2021/03/28 14:05:23;;;;;;;2.50;2.08;;;14.40;42.00;;;;;;5050050;28;20045;-78
2021/03/28 14:07:56;;;;;;;2.45;1.30;;;14.60;38.50;;;;;;5050964;28;20482;-79
2021/03/28 14:10:33;;;;;;;2.55;1.58;;;14.60;41.70;;;;;;4998470;28;20050;-76
2021/03/28 14:13:15;;;;;;;2.42;1.70;;;14.70;41.90;;;;;;5008397;28;20046;-76
2021/03/28 14:15:47;;;;;;;1.75;1.23;;;14.70;42.90;;;;;;5009009;28;20061;-76
2021/03/28 14:18:57;;;;;;;2.90;1.60;;;14.70;37.40;;;;;;4991622;28;20042;-76
2021/03/28 14:21:35;;;;;;;1.55;1.40;;;14.80;39.90;;;;;;4968780;28;20079;-79
2021/03/28 14:24:11;;;;;;;2.10;1.35;;;14.70;37.30;;;;;;4968524;28;20063;-78
2021/03/28 14:26:44;;;;;;;11.05;1.42;;;14.60;38.10;;;;;;4988060;28;20049;-79
2021/03/28 14:29:30;;;;;;;2.80;1.67;;;14.80;40.00;;;;;;5012210;28;20054;-79
2021/03/28 14:32:04;;;;;;;8.48;2.28;;;14.80;37.70;;;;;;5011636;28;20065;-78
2021/03/28 14:34:56;;;;;;;2.38;1.10;;;14.90;42.30;;;;;;5001564;28;20053;-79
2021/03/28 14:37:33;;;;;;;3.35;1.23;;;14.80;37.30;;;;;;5010483;28;20845;-75